Time;durP1;ratioP1;P1;durP2;ratioP2;P2;SDS_P1;SDS_P2;PMS_P1;PMS_P2;Temp;Humidity;BMP_temperature;BMP_pressure;BME280_temperature;BME280_humidity;BME280_pressure;Samples;Min_cycle;Max_cycle;Signal;HPM_P1;HPM_P2
2023/09/10 00:00:24;;;;;;;12.53;11.17;;;;;;;;;;5047778;28;20185;-57
2023/09/10 00:02:50;;;;;;;13.30;11.57;;;;;;;;;;5047619;28;20212;-57
2023/09/10 00:05:16;;;;;;;12.33;11.17;;;;;;;;;;5047112;28;20186;-57
2023/09/10 00:07:42;;;;;;;13.27;11.97;;;;;;;;;;5046476;28;20640;-57
2023/09/10 00:10:09;;;;;;;12.40;11.03;;;;;;;;;;5047026;28;20184;-57
2023/09/10 00:12:35;;;;;;;13.03;11.83;;;;;;;;;;5047438;28;20185;-58
2023/09/10 00:15:01;;;;;;;11.90;10.87;;;;;;;;;;5047753;28;20181;-58
2023/09/10 00:17:27;;;;;;;13.20;11.90;;;;;;;;;;5047839;28;20565;-58
2023/09/10 00:19:53;;;;;;;12.63;11.53;;;;;;;;;;5047181;28;20271;-57
2023/09/10 00:22:19;;;;;;;11.83;10.63;;;;;;;;;;5046383;28;20195;-57
2023/09/10 00:24:45;;;;;;;13.50;12.20;;;;;;;;;;5047759;28;20229;-58
2023/09/10 00:27:14;;;;;;;13.07;11.80;;;;;;;;;;5045043;28;20202;-58
2023/09/10 00:29:40;;;;;;;13.23;11.93;;;;;;;;;;5046398;28;20278;-58
2023/09/10 00:32:06;;;;;;;13.50;12.20;;;;;;;;;;5047791;28;20647;-58
2023/09/10 00:34:33;;;;;;;12.77;11.57;;;;;;;;;;5047639;28;20571;-57
2023/09/10 00:36:59;;;;;;;13.10;11.93;;;;;;;;;;5044242;28;20211;-58
2023/09/10 00:39:25;;;;;;;14.87;12.57;;;;;;;;;;5046769;28;20644;-58
2023/09/10 00:41:54;;;;;;;12.83;11.57;;;;;;;;;;5038521;28;20640;-57
2023/09/10 00:44:21;;;;;;;14.13;12.77;;;;;;;;;;5047006;28;20198;-58
2023/09/10 00:46:47;;;;;;;16.70;12.03;;;;;;;;;;5048035;28;20182;-58
2023/09/10 00:49:13;;;;;;;12.57;11.37;;;;;;;;;;5044730;28;20211;-58
2023/09/10 00:51:40;;;;;;;13.77;12.17;;;;;;;;;;5046269;28;20186;-57
2023/09/10 00:54:06;;;;;;;12.60;11.50;;;;;;;;;;5045577;28;20702;-58
2023/09/10 00:56:32;;;;;;;12.77;11.67;;;;;;;;;;5049839;28;20664;-58
2023/09/10 00:58:58;;;;;;;18.87;12.57;;;;;;;;;;5050656;28;20296;-58
2023/09/10 01:01:24;;;;;;;14.23;12.80;;;;;;;;;;5049447;28;20191;-61
2023/09/10 01:03:50;;;;;;;13.30;12.10;;;;;;;;;;5051388;28;20282;-59
2023/09/10 01:06:16;;;;;;;13.37;12.13;;;;;;;;;;5048863;28;20564;-57
2023/09/10 01:08:43;;;;;;;13.03;11.57;;;;;;;;;;5050255;28;20187;-57
2023/09/10 01:11:17;;;;;;;13.80;12.60;;;;;;;;;;5050462;28;20641;-58
2023/09/10 01:14:19;;;;;;;13.87;12.00;;;;;;;;;;5049923;28;20231;-58
2023/09/10 01:16:47;;;;;;;14.63;12.27;;;;;;;;;;4948433;29;20600;-58
2023/09/10 01:19:25;;;;;;;13.77;12.37;;;;;;;;;;5025894;28;20233;-57
2023/09/10 01:22:01;;;;;;;13.37;12.07;;;;;;;;;;5043618;28;20543;-57
2023/09/10 01:24:42;;;;;;;11.90;10.90;;;;;;;;;;5046052;28;20643;-57
2023/09/10 01:27:08;;;;;;;13.53;12.23;;;;;;;;;;5049604;28;20178;-58
2023/09/10 01:29:34;;;;;;;13.20;11.90;;;;;;;;;;5049505;28;20179;-58
2023/09/10 01:32:05;;;;;;;14.10;12.13;;;;;;;;;;5050244;28;20569;-57
2023/09/10 01:34:33;;;;;;;13.97;11.97;;;;;;;;;;5050530;28;20594;-57
2023/09/10 01:37:08;;;;;;;14.13;12.00;;;;;;;;;;5049266;28;20572;-57
2023/09/10 01:39:37;;;;;;;13.90;11.67;;;;;;;;;;5049071;28;20180;-57
2023/09/10 01:42:06;;;;;;;13.10;11.83;;;;;;;;;;5049694;28;20265;-58
2023/09/10 01:44:33;;;;;;;13.07;11.97;;;;;;;;;;5049814;28;20251;-57
2023/09/10 01:47:00;;;;;;;13.83;12.53;;;;;;;;;;5048212;28;20543;-58
2023/09/10 01:49:26;;;;;;;14.60;13.10;;;;;;;;;;5049719;28;20200;-58
2023/09/10 01:51:52;;;;;;;14.93;13.03;;;;;;;;;;5046992;28;20260;-57
2023/09/10 01:54:18;;;;;;;13.23;12.03;;;;;;;;;;5047652;28;20183;-57
2023/09/10 01:56:44;;;;;;;13.70;12.30;;;;;;;;;;5043191;28;20857;-60
2023/09/10 01:59:10;;;;;;;13.90;12.50;;;;;;;;;;5047963;28;20257;-60
2023/09/10 02:01:36;;;;;;;13.47;12.07;;;;;;;;;;5048257;28;20185;-60
2023/09/10 02:04:03;;;;;;;14.53;12.40;;;;;;;;;;5048823;28;20626;-61
2023/09/10 02:06:29;;;;;;;14.53;13.10;;;;;;;;;;5046206;28;20182;-60
2023/09/10 02:08:55;;;;;;;15.10;13.03;;;;;;;;;;5047022;28;20276;-60
2023/09/10 02:11:21;;;;;;;13.37;12.10;;;;;;;;;;5047859;28;20269;-61
2023/09/10 02:13:47;;;;;;;13.23;11.73;;;;;;;;;;5047849;28;22144;-61
2023/09/10 02:16:13;;;;;;;12.60;11.50;;;;;;;;;;5046559;28;20228;-61
2023/09/10 02:18:39;;;;;;;14.20;12.13;;;;;;;;;;5048181;28;20240;-60
2023/09/10 02:21:11;;;;;;;12.40;11.30;;;;;;;;;;5046946;28;20726;-60
2023/09/10 02:23:38;;;;;;;15.47;12.63;;;;;;;;;;5046341;28;20525;-60
2023/09/10 02:26:04;;;;;;;12.77;11.43;;;;;;;;;;5045860;28;20201;-60
2023/09/10 02:28:32;;;;;;;13.37;12.17;;;;;;;;;;5048281;28;20672;-60
2023/09/10 02:31:03;;;;;;;13.10;11.77;;;;;;;;;;5047147;28;20187;-60
2023/09/10 02:33:29;;;;;;;12.40;11.30;;;;;;;;;;5046286;28;20190;-59
2023/09/10 02:35:55;;;;;;;12.07;10.87;;;;;;;;;;5047746;28;20255;-61
2023/09/10 02:38:21;;;;;;;15.77;11.47;;;;;;;;;;5045946;28;20915;-60
2023/09/10 02:40:47;;;;;;;14.80;11.80;;;;;;;;;;5047201;28;20196;-60
2023/09/10 02:43:13;;;;;;;13.10;11.80;;;;;;;;;;5048789;28;20697;-60
2023/09/10 02:45:40;;;;;;;12.23;11.13;;;;;;;;;;5044543;28;20216;-59
2023/09/10 02:48:06;;;;;;;12.63;11.43;;;;;;;;;;5046788;28;20191;-60
2023/09/10 02:50:32;;;;;;;13.07;10.93;;;;;;;;;;5048092;28;20182;-60
2023/09/10 02:52:58;;;;;;;11.67;10.67;;;;;;;;;;5044915;28;20279;-60
2023/09/10 02:55:24;;;;;;;12.73;11.10;;;;;;;;;;5044998;28;20187;-60
2023/09/10 02:57:50;;;;;;;12.53;11.30;;;;;;;;;;5044851;28;20640;-60
2023/09/10 03:00:19;;;;;;;11.50;10.17;;;;;;;;;;5047788;28;20524;-60
2023/09/10 03:02:45;;;;;;;10.47;9.50;;;;;;;;;;5046587;28;20183;-60
2023/09/10 03:05:11;;;;;;;11.03;9.97;;;;;;;;;;5045842;28;20178;-59
2023/09/10 03:07:37;;;;;;;11.63;9.60;;;;;;;;;;5043926;28;20663;-57
2023/09/10 03:10:03;;;;;;;11.27;10.07;;;;;;;;;;5046828;28;20209;-57
2023/09/10 03:12:30;;;;;;;10.93;10.00;;;;;;;;;;5045797;28;20663;-56
2023/09/10 03:14:56;;;;;;;11.07;9.97;;;;;;;;;;5047229;28;20318;-56
2023/09/10 03:17:22;;;;;;;11.30;10.30;;;;;;;;;;5045771;28;20192;-58
2023/09/10 03:19:48;;;;;;;10.03;9.10;;;;;;;;;;5046973;28;20197;-59
2023/09/10 03:22:14;;;;;;;9.80;8.90;;;;;;;;;;5045478;28;20688;-59
2023/09/10 03:24:40;;;;;;;11.30;10.40;;;;;;;;;;5046437;28;20181;-59
2023/09/10 03:27:06;;;;;;;11.63;10.47;;;;;;;;;;5046520;28;20296;-59
2023/09/10 03:29:34;;;;;;;11.17;9.87;;;;;;;;;;5046833;28;20704;-59
2023/09/10 03:32:01;;;;;;;10.53;9.63;;;;;;;;;;5046652;28;20227;-59
2023/09/10 03:34:27;;;;;;;11.80;10.73;;;;;;;;;;5047782;28;20185;-60
2023/09/10 03:36:53;;;;;;;10.73;9.73;;;;;;;;;;5046882;28;20184;-59
2023/09/10 03:39:19;;;;;;;12.10;10.40;;;;;;;;;;5044558;28;20204;-59
2023/09/10 03:41:46;;;;;;;11.10;10.10;;;;;;;;;;5046140;28;20185;-60
2023/09/10 03:44:12;;;;;;;10.90;10.00;;;;;;;;;;5047714;28;20169;-59
2023/09/10 03:46:38;;;;;;;11.70;10.70;;;;;;;;;;5045109;28;20188;-60
2023/09/10 03:49:04;;;;;;;11.13;10.13;;;;;;;;;;5039076;28;20188;-59
2023/09/10 03:51:30;;;;;;;10.73;9.83;;;;;;;;;;5047582;28;20177;-59
2023/09/10 03:53:56;;;;;;;10.80;9.80;;;;;;;;;;5047438;28;20663;-59
2023/09/10 03:56:22;;;;;;;10.90;9.90;;;;;;;;;;5045933;28;20215;-58
2023/09/10 03:58:48;;;;;;;11.00;10.03;;;;;;;;;;5047375;28;20263;-59
2023/09/10 04:01:14;;;;;;;12.43;11.30;;;;;;;;;;5047975;28;20173;-59
2023/09/10 04:03:40;;;;;;;11.73;10.53;;;;;;;;;;5047250;28;20648;-59
2023/09/10 04:06:06;;;;;;;11.40;10.37;;;;;;;;;;5046284;28;20216;-60
2023/09/10 04:08:32;;;;;;;11.30;10.30;;;;;;;;;;5026582;28;20181;-60
2023/09/10 04:10:58;;;;;;;11.60;10.57;;;;;;;;;;5045740;28;20199;-59
2023/09/10 04:13:24;;;;;;;11.67;10.67;;;;;;;;;;5047249;28;20190;-60
2023/09/10 04:15:50;;;;;;;12.43;11.17;;;;;;;;;;5044182;28;20588;-59
2023/09/10 04:18:16;;;;;;;11.73;10.80;;;;;;;;;;5045681;28;20226;-59
2023/09/10 04:20:42;;;;;;;12.53;11.27;;;;;;;;;;5045317;28;20189;-59
2023/09/10 04:23:08;;;;;;;13.03;11.70;;;;;;;;;;5044711;28;20644;-59
2023/09/10 04:25:34;;;;;;;12.67;11.47;;;;;;;;;;5046405;28;20182;-59
2023/09/10 04:28:00;;;;;;;11.93;10.77;;;;;;;;;;5046357;28;20186;-59
2023/09/10 04:30:26;;;;;;;13.17;11.97;;;;;;;;;;5049991;28;20732;-60
2023/09/10 04:32:52;;;;;;;12.03;11.03;;;;;;;;;;5051073;28;20173;-60
2023/09/10 04:35:18;;;;;;;13.43;12.10;;;;;;;;;;5048568;28;20669;-59
2023/09/10 04:37:44;;;;;;;13.43;12.33;;;;;;;;;;5049844;28;20212;-59
2023/09/10 04:40:11;;;;;;;14.03;12.80;;;;;;;;;;5050761;28;20181;-59
2023/09/10 04:42:37;;;;;;;13.27;12.07;;;;;;;;;;5051266;28;20182;-60
2023/09/10 04:45:03;;;;;;;12.73;11.57;;;;;;;;;;5049821;28;20237;-59
2023/09/10 04:47:30;;;;;;;13.10;12.00;;;;;;;;;;5050644;28;20264;-60
2023/09/10 04:49:56;;;;;;;12.73;11.73;;;;;;;;;;5050895;28;20633;-60
2023/09/10 04:52:22;;;;;;;14.50;12.33;;;;;;;;;;5047932;28;20235;-60
2023/09/10 04:54:48;;;;;;;13.53;12.23;;;;;;;;;;5049910;28;20383;-60
2023/09/10 04:57:14;;;;;;;13.03;11.73;;;;;;;;;;5047653;28;20690;-60
2023/09/10 04:59:40;;;;;;;13.07;11.97;;;;;;;;;;5047729;28;20679;-61
2023/09/10 05:02:06;;;;;;;14.13;12.80;;;;;;;;;;5049826;28;20838;-59
2023/09/10 05:04:32;;;;;;;13.33;12.33;;;;;;;;;;5051284;28;20630;-59
2023/09/10 05:06:58;;;;;;;12.97;11.77;;;;;;;;;;5041340;28;20646;-59
2023/09/10 05:09:25;;;;;;;13.63;12.43;;;;;;;;;;5049405;28;20208;-59
2023/09/10 05:11:51;;;;;;;14.10;12.23;;;;;;;;;;5045313;28;20638;-59
2023/09/10 05:14:17;;;;;;;13.13;11.93;;;;;;;;;;5050229;28;20198;-59
2023/09/10 05:16:43;;;;;;;13.77;12.40;;;;;;;;;;5049256;28;20187;-59
2023/09/10 05:19:09;;;;;;;13.57;12.23;;;;;;;;;;5050209;28;20220;-59
2023/09/10 05:21:35;;;;;;;14.13;12.93;;;;;;;;;;5049471;28;20229;-59
2023/09/10 05:24:01;;;;;;;13.50;12.30;;;;;;;;;;5048215;28;20184;-59
2023/09/10 05:26:27;;;;;;;13.40;12.07;;;;;;;;;;5049400;28;20641;-59
2023/09/10 05:28:53;;;;;;;13.17;12.07;;;;;;;;;;5050226;28;20181;-59
2023/09/10 05:31:19;;;;;;;15.03;13.53;;;;;;;;;;5049786;28;20254;-59
2023/09/10 05:33:46;;;;;;;13.23;12.13;;;;;;;;;;5049467;28;20192;-59
2023/09/10 05:36:12;;;;;;;14.17;12.97;;;;;;;;;;5048842;28;20648;-60
2023/09/10 05:38:38;;;;;;;14.87;13.57;;;;;;;;;;5049315;28;20737;-59
2023/09/10 05:41:04;;;;;;;16.40;15.00;;;;;;;;;;5046957;28;20214;-59
2023/09/10 05:43:31;;;;;;;15.17;13.77;;;;;;;;;;5049396;28;20671;-59
2023/09/10 05:45:57;;;;;;;14.27;13.17;;;;;;;;;;5047923;28;20544;-59
2023/09/10 05:48:23;;;;;;;16.03;14.53;;;;;;;;;;5050269;28;20658;-60
2023/09/10 05:50:49;;;;;;;15.40;13.90;;;;;;;;;;5048710;28;20255;-60
2023/09/10 05:53:16;;;;;;;15.30;13.83;;;;;;;;;;5048251;28;20259;-59
2023/09/10 05:55:42;;;;;;;15.33;14.13;;;;;;;;;;5049251;28;20203;-59
2023/09/10 05:58:08;;;;;;;15.10;13.70;;;;;;;;;;5047419;28;20693;-60
2023/09/10 06:00:34;;;;;;;15.37;14.00;;;;;;;;;;5041220;28;20231;-60
2023/09/10 06:03:00;;;;;;;15.07;13.67;;;;;;;;;;5031499;28;20208;-59
2023/09/10 06:05:26;;;;;;;14.87;13.67;;;;;;;;;;5048056;28;20183;-58
2023/09/10 06:07:52;;;;;;;15.43;13.83;;;;;;;;;;5045865;28;20520;-59
2023/09/10 06:10:18;;;;;;;16.60;15.00;;;;;;;;;;5048467;28;20241;-60
2023/09/10 06:12:44;;;;;;;16.63;15.23;;;;;;;;;;5045978;28;20728;-59
2023/09/10 06:15:11;;;;;;;15.97;14.53;;;;;;;;;;5046857;28;20264;-59
2023/09/10 06:17:37;;;;;;;14.00;12.80;;;;;;;;;;5047216;28;20177;-60
2023/09/10 06:20:04;;;;;;;15.43;14.10;;;;;;;;;;5049599;28;20204;-59
2023/09/10 06:22:30;;;;;;;14.80;13.37;;;;;;;;;;5047436;28;20381;-59
2023/09/10 06:24:57;;;;;;;16.83;13.93;;;;;;;;;;5049388;28;20268;-60
2023/09/10 06:27:23;;;;;;;15.17;13.77;;;;;;;;;;5029239;28;20177;-60
2023/09/10 06:29:49;;;;;;;14.83;13.43;;;;;;;;;;5049375;28;20707;-60
2023/09/10 06:32:15;;;;;;;14.37;13.17;;;;;;;;;;5048187;28;20173;-60
2023/09/10 06:34:41;;;;;;;16.77;15.03;;;;;;;;;;5049567;28;20662;-60
2023/09/10 06:37:07;;;;;;;15.60;14.23;;;;;;;;;;5047300;28;20177;-59
2023/09/10 06:39:38;;;;;;;17.43;15.67;;;;;;;;;;5046288;28;20625;-59
2023/09/10 06:42:08;;;;;;;17.23;15.77;;;;;;;;;;5046542;28;20269;-62
2023/09/10 06:44:34;;;;;;;16.37;14.87;;;;;;;;;;5048785;28;20665;-59
2023/09/10 06:47:00;;;;;;;14.13;12.93;;;;;;;;;;5047318;28;20549;-59
2023/09/10 06:49:27;;;;;;;15.03;13.53;;;;;;;;;;5046614;28;20236;-59
2023/09/10 06:51:53;;;;;;;12.60;11.50;;;;;;;;;;5043763;28;20185;-59
2023/09/10 06:54:19;;;;;;;15.13;13.70;;;;;;;;;;5045367;28;20177;-60
2023/09/10 06:56:45;;;;;;;14.73;13.43;;;;;;;;;;5046532;28;20188;-59
2023/09/10 06:59:11;;;;;;;16.53;14.83;;;;;;;;;;5046140;28;20204;-59
2023/09/10 07:01:37;;;;;;;15.10;13.50;;;;;;;;;;5044136;28;20179;-62
2023/09/10 07:04:15;;;;;;;15.03;13.67;;;;;;;;;;5045691;28;20601;-61
2023/09/10 07:06:41;;;;;;;14.00;12.70;;;;;;;;;;5044155;28;20714;-61
2023/09/10 07:09:07;;;;;;;17.07;12.87;;;;;;;;;;5042944;28;20186;-59
2023/09/10 07:11:33;;;;;;;13.70;12.30;;;;;;;;;;5047079;28;20198;-61
2023/09/10 07:13:59;;;;;;;12.77;11.47;;;;;;;;;;5046148;28;20672;-59
2023/09/10 07:16:27;;;;;;;12.53;11.10;;;;;;;;;;5047102;28;20223;-59
2023/09/10 07:18:53;;;;;;;13.27;11.03;;;;;;;;;;5046047;28;20263;-59
2023/09/10 07:21:19;;;;;;;11.73;10.47;;;;;;;;;;5045955;28;20236;-59
2023/09/10 07:23:45;;;;;;;12.47;10.13;;;;;;;;;;5046652;28;20173;-59
2023/09/10 07:26:11;;;;;;;11.73;10.47;;;;;;;;;;5047142;28;20723;-59
2023/09/10 07:28:37;;;;;;;11.53;9.67;;;;;;;;;;5045607;28;20222;-55
2023/09/10 07:31:03;;;;;;;11.73;10.63;;;;;;;;;;5044869;28;20266;-56
2023/09/10 07:33:29;;;;;;;13.23;9.80;;;;;;;;;;5042814;28;20218;-55
2023/09/10 07:35:55;;;;;;;14.50;9.83;;;;;;;;;;5044636;28;20698;-58
2023/09/10 07:38:21;;;;;;;10.77;8.80;;;;;;;;;;5045081;28;20621;-56
2023/09/10 07:40:47;;;;;;;13.90;10.47;;;;;;;;;;5042866;28;20598;-56
2023/09/10 07:43:13;;;;;;;13.63;10.97;;;;;;;;;;5045373;28;20173;-55
2023/09/10 07:45:40;;;;;;;15.50;10.00;;;;;;;;;;5046843;28;20535;-56
2023/09/10 07:48:06;;;;;;;11.33;9.70;;;;;;;;;;5041534;28;20562;-57
2023/09/10 07:50:32;;;;;;;11.43;9.63;;;;;;;;;;5041466;28;20181;-54
2023/09/10 07:52:58;;;;;;;12.43;9.03;;;;;;;;;;5042847;28;20182;-55
2023/09/10 07:55:25;;;;;;;15.83;8.93;;;;;;;;;;5039783;28;20680;-55
2023/09/10 07:57:51;;;;;;;14.37;10.17;;;;;;;;;;5039347;28;20632;-54
2023/09/10 08:00:17;;;;;;;12.97;10.57;;;;;;;;;;5044438;28;20188;-58
2023/09/10 08:02:43;;;;;;;10.10;9.10;;;;;;;;;;5046088;28;20229;-59
2023/09/10 08:05:10;;;;;;;11.47;9.00;;;;;;;;;;5044409;28;20171;-59
2023/09/10 08:07:36;;;;;;;14.67;9.30;;;;;;;;;;5046970;28;20731;-58
2023/09/10 08:10:02;;;;;;;11.40;9.13;;;;;;;;;;5052106;28;20533;-58
2023/09/10 08:12:28;;;;;;;10.17;8.27;;;;;;;;;;5049220;28;20178;-57
2023/09/10 08:14:54;;;;;;;10.07;9.07;;;;;;;;;;5047276;28;20538;-59
2023/09/10 08:17:21;;;;;;;11.20;9.27;;;;;;;;;;5047436;28;20545;-58
2023/09/10 08:19:47;;;;;;;9.60;8.47;;;;;;;;;;5051317;28;20617;-58
2023/09/10 08:22:13;;;;;;;10.27;8.80;;;;;;;;;;5045137;28;20241;-58
2023/09/10 08:24:39;;;;;;;11.90;8.73;;;;;;;;;;5050983;28;20189;-58
2023/09/10 08:27:05;;;;;;;22.70;8.33;;;;;;;;;;5047929;28;20171;-58
2023/09/10 08:29:31;;;;;;;11.60;8.50;;;;;;;;;;5050047;28;20192;-58
2023/09/10 08:31:58;;;;;;;16.07;8.03;;;;;;;;;;5042653;28;20181;-57
2023/09/10 08:34:25;;;;;;;14.97;8.43;;;;;;;;;;5045353;28;20204;-58
2023/09/10 08:36:51;;;;;;;19.45;8.18;;;;;;;;;;5043718;28;20178;-58
2023/09/10 08:39:17;;;;;;;13.18;8.45;;;;;;;;;;5040895;28;20699;-57
2023/09/10 08:42:01;;;;;;;8.32;7.45;;;;;;;;;;5044285;28;20544;-58
2023/09/10 08:44:29;;;;;;;14.07;8.30;;;;;;;;;;5045091;28;20668;-57
2023/09/10 08:46:56;;;;;;;9.82;7.57;;;;;;;;;;5047667;28;20234;-58
2023/09/10 08:49:23;;;;;;;8.05;7.25;;;;;;;;;;5050665;28;20191;-58
2023/09/10 08:51:49;;;;;;;10.85;7.22;;;;;;;;;;5048481;28;20535;-58
2023/09/10 08:54:15;;;;;;;11.85;8.90;;;;;;;;;;5046798;28;20197;-58
2023/09/10 08:56:42;;;;;;;10.82;7.85;;;;;;;;;;5049506;28;20675;-57
2023/09/10 08:59:08;;;;;;;11.75;8.13;;;;;;;;;;5050562;28;20201;-57
2023/09/10 09:01:34;;;;;;;13.73;9.00;;;;;;;;;;5051997;28;20641;-56
2023/09/10 09:04:00;;;;;;;8.98;7.68;;;;;;;;;;5050773;28;20219;-56
2023/09/10 09:06:29;;;;;;;10.52;8.32;;;;;;;;;;5044745;28;20173;-56
2023/09/10 09:08:57;;;;;;;13.63;7.88;;;;;;;;;;5049671;28;20706;-56
2023/09/10 09:11:24;;;;;;;11.98;7.63;;;;;;;;;;5046609;28;20192;-56
2023/09/10 09:13:52;;;;;;;15.93;8.38;;;;;;;;;;5048132;28;20836;-56
2023/09/10 09:16:18;;;;;;;11.23;8.35;;;;;;;;;;5045297;28;20188;-56
2023/09/10 09:18:45;;;;;;;15.07;9.65;;;;;;;;;;5050515;28;20217;-56
2023/09/10 09:21:13;;;;;;;9.15;7.90;;;;;;;;;;5045333;28;20308;-56
2023/09/10 09:23:45;;;;;;;12.18;9.00;;;;;;;;;;5043211;28;20261;-56
2023/09/10 09:26:14;;;;;;;13.23;8.35;;;;;;;;;;5047792;28;20239;-56
2023/09/10 09:28:40;;;;;;;11.15;7.80;;;;;;;;;;5045416;28;20710;-57
2023/09/10 09:31:09;;;;;;;11.25;7.85;;;;;;;;;;5044850;28;20184;-56
2023/09/10 09:33:39;;;;;;;11.45;7.82;;;;;;;;;;5043034;28;20567;-56
2023/09/10 09:36:08;;;;;;;14.60;8.38;;;;;;;;;;5045259;28;20303;-57
2023/09/10 09:38:34;;;;;;;10.35;8.27;;;;;;;;;;5044026;28;20244;-56
2023/09/10 09:41:04;;;;;;;10.83;7.53;;;;;;;;;;5043680;28;20176;-56
2023/09/10 09:43:33;;;;;;;13.37;8.17;;;;;;;;;;5046271;28;20213;-56
2023/09/10 09:45:59;;;;;;;12.97;8.23;;;;;;;;;;5046919;28;20220;-56
2023/09/10 09:48:25;;;;;;;11.40;7.43;;;;;;;;;;5042529;28;20261;-56
2023/09/10 09:50:51;;;;;;;10.27;7.60;;;;;;;;;;5042402;28;20235;-56
2023/09/10 09:53:17;;;;;;;14.20;7.77;;;;;;;;;;5044303;28;20285;-56
2023/09/10 09:55:44;;;;;;;11.20;7.17;;;;;;;;;;5046540;28;20270;-56
2023/09/10 09:58:11;;;;;;;12.60;8.83;;;;;;;;;;5047290;28;20597;-56
2023/09/10 10:00:37;;;;;;;13.37;8.13;;;;;;;;;;5045703;28;20190;-56
2023/09/10 10:03:05;;;;;;;12.77;7.97;;;;;;;;;;5045058;28;20180;-56
2023/09/10 10:05:34;;;;;;;13.20;7.47;;;;;;;;;;5043523;28;20194;-56
2023/09/10 10:08:00;;;;;;;10.77;7.53;;;;;;;;;;5048478;28;20187;-56
2023/09/10 10:10:27;;;;;;;9.90;6.53;;;;;;;;;;5048994;28;20184;-56
2023/09/10 10:12:53;;;;;;;17.27;7.87;;;;;;;;;;5048306;28;20242;-56
2023/09/10 10:15:20;;;;;;;16.07;9.17;;;;;;;;;;5038287;28;20185;-56
2023/09/10 10:17:46;;;;;;;14.00;7.53;;;;;;;;;;5048743;28;20235;-56
2023/09/10 10:20:13;;;;;;;28.50;9.63;;;;;;;;;;5047875;28;20180;-54
2023/09/10 10:22:39;;;;;;;22.57;9.57;;;;;;;;;;5039593;28;20751;-55
2023/09/10 10:25:07;;;;;;;10.97;7.37;;;;;;;;;;5047952;28;20184;-55
2023/09/10 10:27:36;;;;;;;9.77;7.30;;;;;;;;;;5040447;28;20636;-55
2023/09/10 10:30:06;;;;;;;11.23;7.47;;;;;;;;;;5039788;28;20173;-54
2023/09/10 10:32:39;;;;;;;9.53;7.17;;;;;;;;;;5044259;28;20265;-55
2023/09/10 10:35:06;;;;;;;11.70;6.97;;;;;;;;;;5041126;28;20185;-55
2023/09/10 10:37:35;;;;;;;10.87;7.13;;;;;;;;;;5041873;28;20222;-54
2023/09/10 10:40:17;;;;;;;9.83;6.80;;;;;;;;;;5040223;28;20684;-55
2023/09/10 10:43:04;;;;;;;12.97;8.33;;;;;;;;;;5043226;28;20307;-55
2023/09/10 10:45:31;;;;;;;10.10;7.43;;;;;;;;;;5042047;28;20543;-55
2023/09/10 10:48:00;;;;;;;10.20;7.60;;;;;;;;;;5043626;28;20668;-55
2023/09/10 10:50:27;;;;;;;9.37;6.63;;;;;;;;;;5041509;28;20694;-55
2023/09/10 10:53:04;;;;;;;11.87;7.03;;;;;;;;;;5021768;28;20601;-55
2023/09/10 10:55:32;;;;;;;8.47;6.80;;;;;;;;;;5044466;28;20187;-55
2023/09/10 10:57:58;;;;;;;10.97;6.93;;;;;;;;;;5043269;28;20209;-55
2023/09/10 11:00:25;;;;;;;11.77;7.87;;;;;;;;;;5041504;28;20658;-54
2023/09/10 11:03:13;;;;;;;11.03;7.00;;;;;;;;;;5047450;28;20318;-55
2023/09/10 11:05:57;;;;;;;10.27;6.70;;;;;;;;;;5047763;28;20670;-55
2023/09/10 11:08:27;;;;;;;11.70;7.40;;;;;;;;;;5028344;28;20192;-54
2023/09/10 11:10:53;;;;;;;10.60;6.23;;;;;;;;;;5031539;28;20185;-54
2023/09/10 11:13:22;;;;;;;8.10;6.47;;;;;;;;;;5022568;28;20212;-55
2023/09/10 11:16:07;;;;;;;7.77;6.80;;;;;;;;;;5047439;28;20180;-54
2023/09/10 11:18:36;;;;;;;9.02;6.50;;;;;;;;;;5044768;28;20240;-54
2023/09/10 11:21:06;;;;;;;9.77;7.10;;;;;;;;;;5039310;28;20632;-55
2023/09/10 11:23:33;;;;;;;8.95;6.25;;;;;;;;;;5041164;28;20184;-56
2023/09/10 11:26:11;;;;;;;11.23;7.15;;;;;;;;;;5046140;28;20631;-55
2023/09/10 11:28:45;;;;;;;7.82;6.00;;;;;;;;;;5043354;28;20640;-55
2023/09/10 11:31:46;;;;;;;9.80;6.28;;;;;;;;;;5045441;28;20185;-54
2023/09/10 11:34:22;;;;;;;13.55;7.43;;;;;;;;;;5046321;28;20177;-54
2023/09/10 11:37:09;;;;;;;10.60;6.47;;;;;;;;;;5043260;28;20196;-52
2023/09/10 11:39:36;;;;;;;10.75;6.40;;;;;;;;;;5027741;28;20197;-51
2023/09/10 11:42:04;;;;;;;11.50;6.33;;;;;;;;;;5040783;28;20174;-51
2023/09/10 11:44:30;;;;;;;13.25;6.78;;;;;;;;;;5044631;28;20181;-52
2023/09/10 11:46:57;;;;;;;7.20;6.45;;;;;;;;;;5040359;28;20212;-52
2023/09/10 11:49:24;;;;;;;14.63;6.95;;;;;;;;;;5043875;28;20238;-52
2023/09/10 11:51:54;;;;;;;10.00;6.95;;;;;;;;;;5043232;28;21000;-54
2023/09/10 11:54:21;;;;;;;10.43;6.88;;;;;;;;;;5039838;28;20230;-54
2023/09/10 11:56:48;;;;;;;18.65;7.13;;;;;;;;;;5044223;28;20243;-55
2023/09/10 11:59:15;;;;;;;108.32;65.03;;;;;;;;;;5041180;28;20731;-55
2023/09/10 12:01:42;;;;;;;58.58;39.47;;;;;;;;;;5024881;28;20193;-55
2023/09/10 12:04:08;;;;;;;36.67;26.85;;;;;;;;;;5042341;28;20176;-55
2023/09/10 12:06:34;;;;;;;40.08;23.65;;;;;;;;;;5043741;28;20177;-55
2023/09/10 12:09:00;;;;;;;13.50;8.82;;;;;;;;;;5041479;28;20216;-55
2023/09/10 12:11:27;;;;;;;15.48;11.18;;;;;;;;;;5039272;28;20185;-57
2023/09/10 12:13:54;;;;;;;13.98;11.05;;;;;;;;;;5041189;28;20678;-59
2023/09/10 12:16:20;;;;;;;9.98;8.43;;;;;;;;;;5041776;28;20173;-56
2023/09/10 12:18:46;;;;;;;11.27;6.28;;;;;;;;;;5040554;28;20594;-55
2023/09/10 12:21:15;;;;;;;11.93;7.30;;;;;;;;;;5037957;28;20245;-55
2023/09/10 12:23:41;;;;;;;9.63;6.88;;;;;;;;;;5041557;28;20178;-56
2023/09/10 12:26:07;;;;;;;6.65;6.03;;;;;;;;;;5036213;28;20186;-55
2023/09/10 12:28:34;;;;;;;9.02;6.85;;;;;;;;;;5045312;28;20195;-55
2023/09/10 12:31:02;;;;;;;9.52;6.75;;;;;;;;;;5039599;28;20181;-57
2023/09/10 12:33:29;;;;;;;12.02;6.57;;;;;;;;;;5042335;28;20188;-56
2023/09/10 12:35:56;;;;;;;7.57;6.82;;;;;;;;;;5039949;28;20681;-55
2023/09/10 12:38:22;;;;;;;8.32;6.47;;;;;;;;;;5040833;28;20222;-56
2023/09/10 12:40:50;;;;;;;7.30;6.03;;;;;;;;;;5046556;28;20170;-56
2023/09/10 12:43:20;;;;;;;6.93;6.20;;;;;;;;;;5044510;28;20655;-54
2023/09/10 12:45:46;;;;;;;7.43;6.43;;;;;;;;;;5043520;28;20613;-57
2023/09/10 12:48:16;;;;;;;11.43;7.85;;;;;;;;;;5044662;28;20200;-56
2023/09/10 12:50:44;;;;;;;11.15;6.32;;;;;;;;;;5047859;28;20590;-56
2023/09/10 12:53:10;;;;;;;8.32;6.32;;;;;;;;;;5050117;28;20177;-54
2023/09/10 12:55:36;;;;;;;9.02;6.15;;;;;;;;;;5048800;28;20271;-56
2023/09/10 12:58:02;;;;;;;10.20;6.25;;;;;;;;;;5047920;28;20296;-54
2023/09/10 13:00:28;;;;;;;8.60;6.45;;;;;;;;;;5048306;28;20592;-53
2023/09/10 13:02:54;;;;;;;8.38;6.30;;;;;;;;;;5045613;28;20184;-54
2023/09/10 13:05:21;;;;;;;9.63;6.57;;;;;;;;;;5046512;28;20186;-55
2023/09/10 13:07:48;;;;;;;11.18;6.75;;;;;;;;;;5047644;28;20169;-56
2023/09/10 13:10:15;;;;;;;9.63;7.00;;;;;;;;;;5048307;28;20276;-53
2023/09/10 13:12:41;;;;;;;15.73;7.55;;;;;;;;;;5047164;28;20173;-53
2023/09/10 13:15:10;;;;;;;8.80;7.25;;;;;;;;;;5026823;28;20591;-54
2023/09/10 13:17:36;;;;;;;9.70;7.32;;;;;;;;;;5046153;28;20184;-57
2023/09/10 13:20:02;;;;;;;8.02;6.82;;;;;;;;;;5042941;28;20209;-56
2023/09/10 13:22:29;;;;;;;14.40;7.43;;;;;;;;;;5048156;28;20254;-55
2023/09/10 13:24:55;;;;;;;10.45;6.57;;;;;;;;;;5048081;28;20177;-55
2023/09/10 13:27:21;;;;;;;7.78;6.47;;;;;;;;;;5043823;28;20702;-55
2023/09/10 13:29:47;;;;;;;7.18;6.47;;;;;;;;;;5045840;28;20294;-55
2023/09/10 13:32:14;;;;;;;8.10;6.45;;;;;;;;;;5047861;28;20664;-55
2023/09/10 13:34:40;;;;;;;7.15;6.45;;;;;;;;;;5031565;28;20204;-55
2023/09/10 13:37:07;;;;;;;8.35;6.88;;;;;;;;;;5048363;28;20256;-55
2023/09/10 13:39:34;;;;;;;10.32;7.35;;;;;;;;;;5047080;28;20324;-54
2023/09/10 13:42:04;;;;;;;11.88;6.05;;;;;;;;;;5041811;28;20676;-56
2023/09/10 13:44:31;;;;;;;7.43;6.32;;;;;;;;;;5047526;28;20185;-55
2023/09/10 13:47:00;;;;;;;12.20;7.13;;;;;;;;;;5050578;28;20585;-55
2023/09/10 13:49:26;;;;;;;7.25;5.95;;;;;;;;;;5044086;28;20177;-56
2023/09/10 13:51:53;;;;;;;7.47;6.32;;;;;;;;;;5047571;28;20185;-55
2023/09/10 13:54:20;;;;;;;7.18;5.93;;;;;;;;;;5046023;28;20185;-55
2023/09/10 13:56:46;;;;;;;8.98;6.97;;;;;;;;;;5049400;28;20523;-55
2023/09/10 13:59:12;;;;;;;9.43;6.43;;;;;;;;;;5049752;28;20197;-55
2023/09/10 14:01:42;;;;;;;8.93;6.45;;;;;;;;;;5048658;28;20177;-56
2023/09/10 14:04:08;;;;;;;9.10;6.60;;;;;;;;;;5044353;28;21096;-56
2023/09/10 14:06:35;;;;;;;8.65;6.50;;;;;;;;;;5027488;28;20247;-55
2023/09/10 14:09:01;;;;;;;9.50;5.35;;;;;;;;;;5044568;28;20185;-55
2023/09/10 14:11:27;;;;;;;8.38;6.78;;;;;;;;;;5050332;28;20636;-55
2023/09/10 14:13:54;;;;;;;11.90;5.90;;;;;;;;;;5051349;28;20703;-57
2023/09/10 14:16:21;;;;;;;6.60;5.97;;;;;;;;;;5032831;28;20184;-54
2023/09/10 14:18:47;;;;;;;9.73;7.10;;;;;;;;;;5050561;28;20213;-55
2023/09/10 14:21:14;;;;;;;9.63;8.32;;;;;;;;;;5047876;28;20240;-56
2023/09/10 14:23:40;;;;;;;14.07;6.80;;;;;;;;;;5047784;28;20561;-55
2023/09/10 14:26:06;;;;;;;7.25;5.72;;;;;;;;;;5048460;28;20170;-55